Strona główna
METAR-TAF:

METAR-TAF

Lotnisko :

Port lotniczy Åre/Östersund

Östersund-Frösön, Szwecja

Szerokość geograficzna: 63-11N, Długość geograficzna: 014-30E, wysokość: 376 m

Aktualna obserwacja pogody

Raport powstał 40 minut temu, godzina 00:50 UTC
Wiatr 21 kt od zachód w porywach dochodzący do 33 kt
Temperatura 3°C
Wilgotność 81%
Ciśnienie 1009 hPa
Widzialność 10 km lub więcej

METAR: ESNZ 210050Z AUTO 27021G33KT 9999 FEW014/// BKN026/// OVC055/// 03/M00 Q1009

czas: 02:30 (01:30 UTC)

Prognoza

Raport powstał 5 godziny i 0 minut temu, godzina 20:30 UTC
Prognoza ważna od 20 godzina 21 UTC do 20 godzina 23 UTC
Wiatr 15 kt od zachód w porywach dochodzący do 25 kt
Widzialność 10 km lub więcej
Rozproszone chmury na wysokości 2500 ft
słaby deszcz

TAF: ESNZ 202030Z 2021/2023 28015G25KT 9999 -RA SCT025

Obserwacja i prognoza pogody dla ponad 4000 lotnisk (raport METAR i TAF).

Dostępne stacje oznaczono żółtymi i czerwonymi punktami na mapie.

Najedź kursorem aby zobaczyć nazwę stacji.

Kliknij aby zobaczyć obserwacje i prognozy pogody.

Aby zmienić mapę: kliknij na zielony przycisk z czarnym krzyżykiem, aby powiększyć; na zielony przycisk z myślnikiem, aby pomniejszyć; na zielone strzałki, aby przejść do map sąsiednich.


METAR-TAF: